Home   Weather   Germany   Münster   Past weeks
Flag for Germany

Past Weather in Münster, North Rhine-Westphalia, Germany — Yesterday and Last 2 Weeks

Currently: 37 °F. Passing clouds. (Weather station: Muenster / Osnabrueck, Germany). See more current weather

Past Weather in Münster — Graph

°F

Münster Temperature Yesterday

Maximum temperature yesterday: 41 °F (at 2:20 pm)
Minimum temperature yesterday: 27 °F (at 2:20 am)
Average temperature yesterday: 35 °F

High & Low Weather Summary for the Past Weeks

 TemperatureHumidityPressure
High66 °F (Feb 23, 3:20 pm)100% (Feb 25, 3:50 am)30.74 "Hg (Feb 25, 3:50 am)
Low23 °F (Mar 6, 3:50 am)36% (Mar 5, 2:50 pm)29.89 "Hg (Feb 20, 11:50 pm)
Average45 °F76%30.36 "Hg
* Reported Feb 20 11:20 pm — Mar 7 11:50 pm, Münster. Weather by CustomWeather, © 2021

Note: Actual official high and low records may vary slightly from our data, if they occured in-between our weather recording intervals... More about our weather records

Münster Weather History for the Previous 24 Hours

Scroll right to see more
 ConditionsComfort  
Time TempWeatherWind HumidityBarometerVisibility
11:50 pm
Sun, Mar 7
37 °FPassing clouds.5 mph81%30.18 "HgN/A
11:20 pm37 °FPassing clouds.6 mph81%30.18 "HgN/A
10:50 pm37 °FPassing clouds.7 mph81%30.18 "HgN/A
10:20 pm37 °FPassing clouds.7 mph75%30.18 "HgN/A
9:50 pm37 °FPassing clouds.6 mph75%30.18 "HgN/A
9:20 pm39 °FPassing clouds.6 mph70%30.18 "HgN/A
8:50 pm39 °FPassing clouds.6 mph70%30.18 "HgN/A
8:20 pm39 °FPassing clouds.7 mph70%30.18 "HgN/A
7:50 pm39 °FPassing clouds.7 mph65%30.18 "HgN/A
7:20 pm39 °FPassing clouds.6 mph65%30.18 "HgN/A
6:50 pm39 °FPassing clouds.6 mph65%30.18 "HgN/A
6:20 pm39 °FPassing clouds.7 mph65%30.18 "HgN/A
5:50 pm39 °FBroken clouds.7 mph65%30.18 "HgN/A
5:20 pm41 °FPartly sunny.7 mph61%30.18 "HgN/A
4:50 pm41 °FPartly sunny.8 mph61%30.18 "HgN/A
4:20 pm41 °FScattered clouds.8 mph57%30.18 "HgN/A
3:50 pm41 °FSunny.9 mph57%30.21 "Hg10 mi
3:20 pm41 °FPartly sunny.10 mph57%30.21 "HgN/A
2:50 pm41 °FPartly sunny.10 mph57%30.21 "HgN/A
2:20 pm41 °FBroken clouds.9 mph61%30.24 "HgN/A
1:20 pm39 °FPartly sunny.8 mph61%30.27 "HgN/A
12:50 pm39 °FPartly sunny.8 mph61%30.27 "HgN/A
12:20 pm39 °FPartly sunny.8 mph61%30.27 "HgN/A
11:50 am39 °FPartly sunny.6 mph65%30.27 "HgN/A
11:20 am37 °FPartly sunny.6 mph75%30.30 "HgN/A
10:50 am36 °FPartly sunny.5 mph87%30.30 "HgN/A
10:20 am36 °FPartly sunny.3 mph87%30.30 "HgN/A
9:50 am34 °FPartly sunny.2 mph93%30.30 "Hg4 mi
9:20 am32 °FPartly sunny.1 mph100%30.30 "Hg4 mi
8:50 am32 °FPartly sunny.1 mph93%30.30 "Hg4 mi
8:20 am30 °FPartly sunny.1 mph100%30.30 "Hg4 mi
7:50 am28 °FPartly sunny.1 mph100%30.30 "Hg4 mi
7:20 am27 °FIce fog.No wind100%30.30 "Hg3 mi
6:50 am27 °FIce fog.1 mph100%30.33 "Hg1 mi
6:20 am27 °FIce fog.2 mph100%30.33 "Hg1 mi
5:50 am27 °FChilly.2 mph93%30.33 "Hg5 mi
5:20 am27 °FChilly.2 mph100%30.33 "Hg5 mi
4:50 am27 °FChilly.1 mph100%30.33 "Hg6 mi
3:50 am28 °FPassing clouds.1 mph100%30.33 "HgN/A
3:20 am28 °FPassing clouds.1 mph100%30.36 "HgN/A
2:50 am28 °FPassing clouds.2 mph100%30.36 "HgN/A
2:20 am27 °FPassing clouds.2 mph100%30.36 "HgN/A
1:50 am28 °FClear.3 mph93%30.39 "Hg10 mi
1:20 am28 °FClear.1 mph100%30.39 "Hg10 mi
Weather by CustomWeather, © 2021

See weather overview